createdAt,value
2019-03-24T00:00:12.468Z,91.10
2019-03-24T00:02:43.360Z,91.10
2019-03-24T00:05:12.652Z,91.10
2019-03-24T00:07:41.933Z,91.20
2019-03-24T00:10:12.149Z,91.30
2019-03-24T00:12:41.438Z,91.30
2019-03-24T00:15:11.474Z,91.30
2019-03-24T00:17:40.757Z,91.30
2019-03-24T00:20:10.495Z,91.40
2019-03-24T00:22:39.827Z,91.40
2019-03-24T00:25:09.348Z,91.50
2019-03-24T00:27:38.620Z,91.40
2019-03-24T00:30:08.874Z,91.50
2019-03-24T00:32:38.120Z,91.40
2019-03-24T00:35:07.472Z,91.30
2019-03-24T00:37:36.741Z,91.20
2019-03-24T00:40:07.164Z,91.20
2019-03-24T00:42:36.438Z,91.20
2019-03-24T00:45:07.831Z,91.10
2019-03-24T00:47:37.109Z,91.10
2019-03-24T00:50:08.141Z,91.10
2019-03-24T00:52:37.419Z,91.10
2019-03-24T00:55:07.352Z,91.00
2019-03-24T00:57:37.750Z,91.00
2019-03-24T01:00:10.060Z,91.00
2019-03-24T01:02:39.325Z,91.00
2019-03-24T01:05:09.778Z,91.00
2019-03-24T01:07:39.208Z,90.90
2019-03-24T01:10:09.628Z,90.90
2019-03-24T01:12:38.897Z,90.90
2019-03-24T01:15:08.609Z,90.90
2019-03-24T01:17:38.762Z,90.80
2019-03-24T01:20:08.470Z,90.80
2019-03-24T01:22:37.744Z,90.80
2019-03-24T01:25:07.362Z,90.70
2019-03-24T01:27:36.639Z,90.70
2019-03-24T01:30:07.833Z,90.70
2019-03-24T01:32:38.076Z,90.70
2019-03-24T01:35:07.914Z,90.60
2019-03-24T01:37:37.222Z,90.70
2019-03-24T01:40:07.125Z,90.60
2019-03-24T01:42:36.404Z,90.60
2019-03-24T01:45:10.869Z,90.60
2019-03-24T01:47:40.150Z,90.60
2019-03-24T01:50:10.362Z,90.50
2019-03-24T01:52:39.639Z,90.50
2019-03-24T01:55:09.240Z,90.50
2019-03-24T01:57:38.519Z,90.50
2019-03-24T02:00:08.156Z,90.50
2019-03-24T02:02:37.435Z,90.50
2019-03-24T02:05:07.739Z,90.60
2019-03-24T02:07:37.015Z,90.50
2019-03-24T02:10:07.824Z,90.60
2019-03-24T02:12:37.100Z,90.60
2019-03-24T02:15:07.989Z,90.70
2019-03-24T02:17:38.229Z,90.70
2019-03-24T02:20:09.782Z,90.70
2019-03-24T02:22:39.055Z,90.70
2019-03-24T02:25:08.452Z,90.60
2019-03-24T02:27:37.732Z,90.70
2019-03-24T02:30:08.543Z,90.70
2019-03-24T02:32:37.817Z,90.90
2019-03-24T02:35:07.640Z,90.70
2019-03-24T02:37:36.905Z,90.70
2019-03-24T02:40:08.624Z,90.60
2019-03-24T02:42:37.902Z,90.70
2019-03-24T02:45:07.930Z,90.70
2019-03-24T02:47:38.168Z,90.70
2019-03-24T02:50:08.859Z,90.80
2019-03-24T02:52:38.120Z,90.80
2019-03-24T02:55:07.932Z,90.90
2019-03-24T02:57:38.184Z,90.90
2019-03-24T03:00:09.123Z,90.90
2019-03-24T03:02:38.435Z,90.90
2019-03-24T03:05:08.953Z,91.00
2019-03-24T03:07:38.233Z,91.00
2019-03-24T03:10:08.245Z,91.00
2019-03-24T03:12:37.517Z,91.10
2019-03-24T03:15:08.136Z,91.20
2019-03-24T03:17:37.474Z,91.20
2019-03-24T03:20:08.909Z,91.20
2019-03-24T03:22:38.264Z,91.20
2019-03-24T03:25:08.250Z,91.30
2019-03-24T03:27:37.517Z,91.40
2019-03-24T03:30:08.838Z,91.40
2019-03-24T03:32:38.253Z,91.40
2019-03-24T03:35:08.899Z,91.50
2019-03-24T03:37:38.222Z,91.60
2019-03-24T03:40:08.235Z,91.60
2019-03-24T03:42:39.160Z,91.60
2019-03-24T03:45:10.079Z,91.70
2019-03-24T03:47:40.598Z,91.70
2019-03-24T03:50:10.381Z,91.80
2019-03-24T03:52:39.644Z,91.80
2019-03-24T03:55:09.052Z,91.80
2019-03-24T03:57:38.393Z,91.90
2019-03-24T04:00:08.510Z,91.90
2019-03-24T04:02:37.778Z,92.00
2019-03-24T04:05:07.127Z,92.10
2019-03-24T04:07:36.391Z,92.20
2019-03-24T04:10:05.913Z,92.20
2019-03-24T04:12:35.181Z,92.20
2019-03-24T04:15:06.803Z,92.30
2019-03-24T04:17:36.069Z,92.30
2019-03-24T04:20:06.788Z,92.30
2019-03-24T04:22:36.100Z,92.40
2019-03-24T04:25:06.585Z,92.40
2019-03-24T04:27:35.889Z,92.50
2019-03-24T04:30:07.409Z,92.60
2019-03-24T04:32:36.685Z,92.60
2019-03-24T04:35:07.800Z,92.70
2019-03-24T04:37:37.073Z,92.70
2019-03-24T04:40:06.888Z,92.80
2019-03-24T04:42:36.161Z,92.80
2019-03-24T04:45:06.190Z,93.00
2019-03-24T04:47:35.475Z,93.00
2019-03-24T04:50:07.081Z,93.00
2019-03-24T04:52:36.352Z,93.10
2019-03-24T04:55:06.863Z,93.20
2019-03-24T04:57:36.137Z,93.30
2019-03-24T05:00:08.631Z,93.40
2019-03-24T05:02:37.970Z,93.50
2019-03-24T05:05:07.697Z,93.50
2019-03-24T05:07:37.030Z,93.50
2019-03-24T05:10:08.895Z,93.60
2019-03-24T05:12:38.158Z,93.60
2019-03-24T05:15:07.437Z,93.70
2019-03-24T05:17:36.720Z,93.70
2019-03-24T05:20:07.123Z,93.70
2019-03-24T05:22:36.406Z,93.80
2019-03-24T05:25:05.740Z,93.50
2019-03-24T05:27:35.020Z,93.80
2019-03-24T05:30:06.529Z,93.90
2019-03-24T05:32:35.808Z,93.90
2019-03-24T05:35:06.615Z,93.90
2019-03-24T05:37:35.893Z,94.00
2019-03-24T05:40:05.524Z,94.00
2019-03-24T05:42:34.834Z,94.10
2019-03-24T05:45:07.062Z,94.10
2019-03-24T05:47:37.675Z,94.10
2019-03-24T05:50:10.383Z,94.10
2019-03-24T05:52:39.648Z,94.10
2019-03-24T05:55:08.980Z,94.10
2019-03-24T05:57:38.260Z,94.10
2019-03-24T06:00:08.564Z,94.10
2019-03-24T06:02:37.907Z,94.10
2019-03-24T06:05:07.523Z,94.20
2019-03-24T06:07:36.797Z,94.10
2019-03-24T06:10:07.604Z,94.10
2019-03-24T06:12:36.881Z,94.10
2019-03-24T06:15:08.386Z,94.10
2019-03-24T06:17:47.334Z,94.10
2019-03-24T06:20:09.150Z,94.10
2019-03-24T06:22:38.506Z,94.20
2019-03-24T06:25:07.908Z,94.50
2019-03-24T06:27:37.190Z,94.20
2019-03-24T06:30:07.810Z,94.20
2019-03-24T06:32:37.079Z,94.20
2019-03-24T06:35:06.784Z,94.20
2019-03-24T06:37:36.297Z,94.20
2019-03-24T06:40:06.909Z,94.20
2019-03-24T06:42:36.184Z,94.20
2019-03-24T06:45:07.384Z,94.20
2019-03-24T06:47:36.671Z,94.20
2019-03-24T06:50:07.653Z,94.20
2019-03-24T06:52:36.929Z,94.30
2019-03-24T06:55:06.337Z,94.20
2019-03-24T06:57:35.653Z,94.20
2019-03-24T07:00:07.141Z,94.20
2019-03-24T07:02:36.409Z,94.20
2019-03-24T07:05:06.330Z,94.20
2019-03-24T07:07:36.569Z,94.20
2019-03-24T07:10:09.132Z,94.20
2019-03-24T07:12:38.467Z,94.20
2019-03-24T07:15:08.272Z,94.10
2019-03-24T07:17:37.753Z,94.10
2019-03-24T07:20:07.444Z,94.10
2019-03-24T07:22:36.709Z,94.00
2019-03-24T07:25:06.429Z,94.30
2019-03-24T07:27:35.701Z,93.90
2019-03-24T07:30:09.271Z,93.90
2019-03-24T07:32:38.629Z,93.80
2019-03-24T07:35:08.533Z,93.80
2019-03-24T07:37:37.801Z,94.10
2019-03-24T07:40:08.231Z,93.60
2019-03-24T07:42:37.576Z,93.60
2019-03-24T07:45:08.694Z,93.60
2019-03-24T07:47:37.969Z,93.50
2019-03-24T07:50:09.193Z,93.80
2019-03-24T07:52:38.472Z,93.30
2019-03-24T07:55:07.906Z,93.20
2019-03-24T07:57:37.172Z,93.00
2019-03-24T08:00:08.888Z,92.90
2019-03-24T08:02:38.173Z,92.90
2019-03-24T08:05:07.612Z,92.80
2019-03-24T08:07:36.876Z,92.70
2019-03-24T08:10:07.803Z,92.60
2019-03-24T08:12:37.107Z,92.50
2019-03-24T08:15:06.660Z,92.40
2019-03-24T08:17:35.932Z,92.50
2019-03-24T08:20:06.757Z,92.50
2019-03-24T08:22:36.025Z,92.30
2019-03-24T08:25:06.537Z,92.00
2019-03-24T08:27:36.779Z,91.90
2019-03-24T08:30:07.295Z,91.90
2019-03-24T08:32:36.568Z,91.80
2019-03-24T08:35:07.156Z,91.80
2019-03-24T08:37:36.597Z,91.70
2019-03-24T08:40:07.249Z,91.60
2019-03-24T08:42:36.559Z,91.70
2019-03-24T08:45:06.202Z,91.70
2019-03-24T08:47:35.479Z,91.70
2019-03-24T08:50:06.913Z,91.60
2019-03-24T08:52:36.177Z,91.50
2019-03-24T08:55:07.377Z,91.50
2019-03-24T08:57:36.652Z,91.40
2019-03-24T09:00:06.685Z,91.20
2019-03-24T09:02:35.964Z,91.10
2019-03-24T09:05:06.385Z,91.00
2019-03-24T09:07:35.664Z,90.80
2019-03-24T09:10:06.573Z,90.70
2019-03-24T09:12:35.848Z,90.60
2019-03-24T09:15:07.912Z,90.50
2019-03-24T09:17:38.263Z,90.50
2019-03-24T09:20:09.002Z,90.30
2019-03-24T09:22:38.317Z,90.50
2019-03-24T09:25:07.927Z,90.30
2019-03-24T09:27:37.195Z,90.20
2019-03-24T09:30:09.582Z,90.20
2019-03-24T09:32:38.842Z,90.20
2019-03-24T09:35:08.111Z,90.10
2019-03-24T09:37:37.389Z,90.10
2019-03-24T09:40:09.181Z,90.00
2019-03-24T09:42:38.480Z,89.60
2019-03-24T09:45:07.992Z,89.50
2019-03-24T09:47:37.283Z,89.20
2019-03-24T09:50:06.614Z,89.00
2019-03-24T09:52:35.897Z,88.30
2019-03-24T09:55:06.719Z,87.20
2019-03-24T09:57:35.992Z,86.70
2019-03-24T10:00:06.526Z,87.10
2019-03-24T10:02:35.801Z,86.70
2019-03-24T10:05:06.228Z,85.00
2019-03-24T10:07:35.561Z,85.40
2019-03-24T10:10:06.576Z,84.00
2019-03-24T10:12:35.836Z,84.60
2019-03-24T10:15:05.968Z,83.40
2019-03-24T10:17:35.252Z,83.50
2019-03-24T10:20:06.113Z,82.20
2019-03-24T10:22:35.504Z,82.30
2019-03-24T10:25:06.624Z,81.00
2019-03-24T10:27:35.906Z,80.50
2019-03-24T10:30:07.937Z,79.80
2019-03-24T10:32:37.225Z,80.30
2019-03-24T10:35:07.474Z,79.80
2019-03-24T10:37:36.876Z,79.30
2019-03-24T10:40:07.989Z,78.90
2019-03-24T10:42:37.452Z,78.50
2019-03-24T10:45:07.651Z,78.40
2019-03-24T10:47:36.920Z,79.00
2019-03-24T10:50:08.508Z,78.50
2019-03-24T10:52:37.954Z,77.70
2019-03-24T10:55:09.433Z,78.20
2019-03-24T10:57:38.878Z,77.90
2019-03-24T11:00:11.236Z,76.80
2019-03-24T11:02:40.596Z,76.20
2019-03-24T11:05:11.085Z,75.10
2019-03-24T11:07:41.333Z,75.80
2019-03-24T11:10:11.849Z,75.90
2019-03-24T11:12:41.125Z,75.30
2019-03-24T11:15:10.761Z,74.50
2019-03-24T11:17:40.037Z,73.80
2019-03-24T11:20:09.955Z,73.60
2019-03-24T11:22:39.225Z,73.50
2019-03-24T11:25:10.347Z,72.90
2019-03-24T11:27:39.620Z,73.00
2019-03-24T11:30:13.981Z,72.80
2019-03-24T11:32:43.257Z,72.60
2019-03-24T11:35:12.813Z,70.90
2019-03-24T11:37:42.085Z,71.40
2019-03-24T11:40:11.900Z,71.20
2019-03-24T11:42:41.168Z,69.30
2019-03-24T11:45:11.296Z,69.30
2019-03-24T11:47:40.568Z,68.60
2019-03-24T11:50:10.438Z,68.40
2019-03-24T11:52:39.712Z,67.40
2019-03-24T11:55:10.335Z,66.60
2019-03-24T11:57:39.615Z,67.20
2019-03-24T12:00:17.494Z,68.00
2019-03-24T12:02:46.754Z,67.60
2019-03-24T12:05:16.048Z,66.60
2019-03-24T12:07:45.372Z,66.40
2019-03-24T12:10:16.291Z,66.60
2019-03-24T12:12:45.560Z,65.60
2019-03-24T12:15:15.816Z,62.70
2019-03-24T12:17:45.080Z,62.00
2019-03-24T12:20:14.531Z,60.90
2019-03-24T12:22:43.820Z,61.30
2019-03-24T12:25:13.169Z,62.90
2019-03-24T12:27:43.409Z,61.20
2019-03-24T12:30:13.933Z,62.50
2019-03-24T12:32:43.209Z,62.90
2019-03-24T12:35:12.493Z,62.00
2019-03-24T12:37:41.764Z,60.10
2019-03-24T12:40:12.254Z,60.40
2019-03-24T12:42:41.521Z,61.50
2019-03-24T12:45:12.948Z,61.50
2019-03-24T12:47:42.271Z,59.70
2019-03-24T12:50:12.191Z,57.80
2019-03-24T12:52:41.502Z,58.80
2019-03-24T12:55:11.220Z,58.70
2019-03-24T12:57:40.492Z,58.60
2019-03-24T13:00:12.622Z,58.00
2019-03-24T13:02:41.975Z,58.50
2019-03-24T13:05:13.360Z,57.30
2019-03-24T13:07:42.715Z,56.60
2019-03-24T13:10:12.244Z,55.30
2019-03-24T13:12:41.529Z,54.20
2019-03-24T13:15:11.037Z,52.90
2019-03-24T13:17:40.320Z,53.70
2019-03-24T13:20:19.782Z,51.80
2019-03-24T13:22:40.934Z,52.70
2019-03-24T13:25:10.200Z,51.70
2019-03-24T13:27:39.485Z,52.30
2019-03-24T13:30:09.140Z,49.90
2019-03-24T13:32:38.413Z,48.10
2019-03-24T13:35:07.704Z,49.90
2019-03-24T13:37:36.980Z,49.70
2019-03-24T13:40:06.437Z,49.40
2019-03-24T13:42:35.712Z,50.20
2019-03-24T13:45:06.816Z,50.30
2019-03-24T13:47:36.104Z,51.20
2019-03-24T13:50:06.532Z,51.90
2019-03-24T13:52:35.816Z,51.30
2019-03-24T13:55:06.624Z,50.50
2019-03-24T13:57:35.972Z,48.80
2019-03-24T14:00:06.984Z,48.30
2019-03-24T14:02:36.261Z,50.10
2019-03-24T14:05:05.607Z,51.30
2019-03-24T14:07:34.946Z,52.30
2019-03-24T14:10:08.366Z,52.80
2019-03-24T14:12:37.653Z,52.40
2019-03-24T14:15:07.160Z,51.60
2019-03-24T14:17:36.812Z,52.00
2019-03-24T14:20:07.448Z,52.50
2019-03-24T14:22:36.696Z,51.20
2019-03-24T14:25:06.928Z,49.60
2019-03-24T14:27:36.219Z,48.60
2019-03-24T14:30:09.109Z,47.50
2019-03-24T14:32:39.477Z,48.10
2019-03-24T14:35:08.992Z,48.70
2019-03-24T14:37:38.409Z,48.20
2019-03-24T14:40:08.320Z,47.30
2019-03-24T14:42:49.812Z,45.30
2019-03-24T14:45:19.084Z,41.10
2019-03-24T14:47:48.381Z,40.60
2019-03-24T14:50:17.658Z,39.80
2019-03-24T14:52:46.934Z,40.40
2019-03-24T14:55:16.214Z,40.10
2019-03-24T14:57:45.476Z,39.90
2019-03-24T15:00:17.860Z,39.00
2019-03-24T15:02:47.129Z,37.50
2019-03-24T15:05:16.426Z,36.50
2019-03-24T15:07:45.672Z,34.30
2019-03-24T15:10:15.126Z,36.30
2019-03-24T15:12:44.387Z,34.90
2019-03-24T15:15:13.688Z,35.30
2019-03-24T15:17:42.956Z,36.60
2019-03-24T15:20:12.232Z,35.00
2019-03-24T15:22:41.493Z,36.70
2019-03-24T15:25:10.843Z,38.10
2019-03-24T15:27:40.111Z,36.20
2019-03-24T15:30:11.030Z,36.50
2019-03-24T15:32:40.300Z,37.20
2019-03-24T15:35:10.119Z,37.80
2019-03-24T15:37:39.380Z,37.70
2019-03-24T15:40:08.897Z,38.90
2019-03-24T15:42:38.164Z,39.10
2019-03-24T15:45:08.688Z,39.90
2019-03-24T15:47:37.955Z,39.90
2019-03-24T15:50:08.369Z,39.50
2019-03-24T15:52:37.704Z,37.90
2019-03-24T15:55:07.325Z,36.10
2019-03-24T15:57:36.592Z,35.30
2019-03-24T16:00:08.117Z,36.80
2019-03-24T16:02:37.412Z,37.40
2019-03-24T16:05:06.829Z,38.50
2019-03-24T16:07:36.096Z,38.10
2019-03-24T16:10:07.309Z,38.60
2019-03-24T16:12:36.658Z,39.90
2019-03-24T16:15:07.845Z,41.00
2019-03-24T16:17:37.110Z,42.00
2019-03-24T16:20:08.028Z,42.60
2019-03-24T16:22:37.298Z,43.00
2019-03-24T16:25:07.611Z,43.40
2019-03-24T16:27:36.881Z,43.70
2019-03-24T16:30:07.124Z,43.50
2019-03-24T16:32:36.391Z,44.30
2019-03-24T16:35:06.108Z,44.80
2019-03-24T16:37:35.559Z,45.10
2019-03-24T16:40:08.194Z,45.80
2019-03-24T16:42:37.469Z,46.20
2019-03-24T16:45:06.908Z,45.50
2019-03-24T16:47:36.196Z,43.50
2019-03-24T16:50:07.428Z,43.30
2019-03-24T16:52:36.724Z,43.30
2019-03-24T16:55:08.709Z,43.30
2019-03-24T16:57:37.988Z,43.20
2019-03-24T17:00:07.618Z,43.60
2019-03-24T17:02:36.960Z,43.70
2019-03-24T17:05:07.895Z,44.50
2019-03-24T17:07:37.172Z,44.90
2019-03-24T17:10:09.959Z,45.10
2019-03-24T17:12:39.314Z,45.60
2019-03-24T17:15:10.026Z,46.10
2019-03-24T17:17:39.614Z,46.10
2019-03-24T17:20:09.716Z,45.40
2019-03-24T17:22:39.009Z,45.30
2019-03-24T17:25:08.717Z,45.40
2019-03-24T17:27:38.004Z,45.40
2019-03-24T17:30:10.181Z,45.80
2019-03-24T17:32:40.561Z,46.70
2019-03-24T17:35:10.560Z,46.30
2019-03-24T17:37:39.833Z,46.70
2019-03-24T17:40:12.454Z,46.90
2019-03-24T17:42:41.898Z,47.30
2019-03-24T17:45:12.309Z,47.60
2019-03-24T17:47:41.589Z,48.00
2019-03-24T17:50:12.175Z,48.20
2019-03-24T17:52:41.625Z,48.30
2019-03-24T17:55:11.932Z,48.40
2019-03-24T17:57:41.210Z,48.80
2019-03-24T18:00:17.249Z,49.00
2019-03-24T18:02:46.521Z,49.20
2019-03-24T18:05:16.049Z,49.50
2019-03-24T18:07:45.318Z,49.70
2019-03-24T18:10:14.723Z,49.90
2019-03-24T18:12:43.988Z,50.00
2019-03-24T18:15:13.940Z,50.30
2019-03-24T18:17:43.221Z,50.50
2019-03-24T18:20:14.319Z,50.70
2019-03-24T18:22:43.573Z,50.90
2019-03-24T18:25:13.086Z,51.30
2019-03-24T18:27:42.348Z,51.60
2019-03-24T18:30:12.151Z,52.00
2019-03-24T18:32:41.428Z,52.40
2019-03-24T18:35:10.873Z,52.90
2019-03-24T18:37:41.122Z,53.00
2019-03-24T18:40:10.812Z,53.50
2019-03-24T18:42:40.081Z,53.60
2019-03-24T18:45:11.865Z,53.90
2019-03-24T18:47:42.263Z,54.10
2019-03-24T18:50:12.286Z,54.40
2019-03-24T18:52:42.528Z,54.60
2019-03-24T18:55:13.440Z,54.80
2019-03-24T18:57:42.708Z,55.10
2019-03-24T19:00:13.763Z,55.40
2019-03-24T19:02:43.057Z,55.50
2019-03-24T19:05:12.403Z,55.80
2019-03-24T19:07:42.639Z,56.10
2019-03-24T19:10:12.948Z,56.10
2019-03-24T19:12:42.221Z,56.30
2019-03-24T19:15:14.918Z,56.40
2019-03-24T19:17:44.266Z,56.50
2019-03-24T19:20:14.200Z,56.60
2019-03-24T19:22:43.465Z,56.90
2019-03-24T19:25:13.206Z,56.90
2019-03-24T19:27:42.468Z,57.10
2019-03-24T19:30:19.810Z,57.30
2019-03-24T19:32:49.088Z,57.50
2019-03-24T19:35:18.371Z,57.60
2019-03-24T19:37:47.638Z,57.70
2019-03-24T19:40:31.026Z,57.90
2019-03-24T19:43:00.281Z,58.20
2019-03-24T19:45:29.563Z,58.60
2019-03-24T19:47:59.807Z,58.80
2019-03-24T19:50:29.088Z,59.40
2019-03-24T19:52:58.348Z,59.60
2019-03-24T19:55:27.623Z,60.00
2019-03-24T19:57:56.889Z,59.70
2019-03-24T20:00:26.185Z,59.90
2019-03-24T20:02:55.451Z,60.50
2019-03-24T20:05:26.862Z,60.80
2019-03-24T20:07:55.774Z,61.10
2019-03-24T20:10:25.045Z,61.10
2019-03-24T20:12:54.325Z,61.50
2019-03-24T20:15:23.613Z,61.50
2019-03-24T20:17:53.948Z,61.90
2019-03-24T20:20:23.237Z,61.80
2019-03-24T20:22:56.743Z,62.10
2019-03-24T20:25:23.483Z,62.40
2019-03-24T20:27:52.752Z,62.80
2019-03-24T20:30:22.050Z,62.80
2019-03-24T20:32:51.327Z,63.20
2019-03-24T20:35:20.602Z,63.20
2019-03-24T20:37:49.890Z,63.10
2019-03-24T20:40:19.168Z,63.50
2019-03-24T20:42:48.456Z,63.70
2019-03-24T20:45:17.803Z,63.80
2019-03-24T20:47:47.099Z,64.10
2019-03-24T20:50:16.412Z,64.60
2019-03-24T20:52:45.688Z,65.00
2019-03-24T20:55:15.035Z,65.50
2019-03-24T20:57:44.402Z,66.00
2019-03-24T21:00:14.107Z,66.70
2019-03-24T21:02:43.885Z,66.10
2019-03-24T21:05:13.173Z,66.60
2019-03-24T21:07:42.449Z,66.80
2019-03-24T21:10:11.866Z,67.60
2019-03-24T21:12:41.155Z,67.70
2019-03-24T21:15:11.638Z,67.80
2019-03-24T21:17:42.185Z,67.90
2019-03-24T21:20:11.625Z,68.20
2019-03-24T21:22:40.939Z,69.50
2019-03-24T21:25:10.961Z,68.80
2019-03-24T21:27:40.252Z,69.10
2019-03-24T21:30:11.072Z,69.10
2019-03-24T21:32:40.353Z,69.10
2019-03-24T21:35:09.789Z,69.40
2019-03-24T21:37:39.060Z,69.90
2019-03-24T21:40:08.410Z,69.10
2019-03-24T21:42:37.689Z,69.20
2019-03-24T21:45:08.204Z,69.40
2019-03-24T21:47:37.484Z,69.70
2019-03-24T21:50:07.629Z,69.80
2019-03-24T21:52:36.900Z,69.60
2019-03-24T21:55:06.727Z,69.80
2019-03-24T21:57:35.985Z,70.30
2019-03-24T22:00:09.875Z,70.20
2019-03-24T22:02:40.311Z,70.30
2019-03-24T22:05:09.769Z,70.50
2019-03-24T22:07:39.037Z,70.80
2019-03-24T22:10:08.376Z,71.00
2019-03-24T22:12:37.651Z,71.50
2019-03-24T22:15:10.007Z,71.70
2019-03-24T22:17:39.276Z,71.60
2019-03-24T22:20:08.687Z,71.80
2019-03-24T22:22:37.958Z,72.00
2019-03-24T22:25:07.401Z,72.30
2019-03-24T22:27:36.675Z,72.50
2019-03-24T22:30:10.492Z,72.60
2019-03-24T22:32:39.756Z,72.90
2019-03-24T22:35:09.109Z,72.90
2019-03-24T22:37:38.369Z,73.00
2019-03-24T22:40:08.785Z,73.20
2019-03-24T22:42:38.049Z,73.40
2019-03-24T22:45:07.661Z,73.40
2019-03-24T22:47:36.923Z,73.50
2019-03-24T22:50:07.843Z,73.70
2019-03-24T22:52:37.364Z,74.00
2019-03-24T22:55:08.273Z,74.30
2019-03-24T22:57:37.534Z,74.50
2019-03-24T23:00:10.594Z,74.90
2019-03-24T23:02:41.205Z,75.80
2019-03-24T23:05:10.548Z,75.80
2019-03-24T23:07:39.824Z,76.70
2019-03-24T23:10:09.340Z,75.80
2019-03-24T23:12:38.600Z,75.80
2019-03-24T23:15:07.940Z,76.20
2019-03-24T23:17:37.209Z,76.70
2019-03-24T23:20:06.818Z,77.00
2019-03-24T23:22:36.087Z,76.70
2019-03-24T23:25:07.311Z,76.80
2019-03-24T23:27:36.568Z,77.40
2019-03-24T23:30:09.393Z,77.20
2019-03-24T23:32:38.668Z,77.20
2019-03-24T23:35:09.674Z,77.50
2019-03-24T23:37:38.950Z,77.50
2019-03-24T23:40:08.765Z,77.50
2019-03-24T23:42:38.053Z,77.60
2019-03-24T23:45:07.968Z,77.90
2019-03-24T23:47:37.235Z,77.90
2019-03-24T23:50:06.856Z,77.80
2019-03-24T23:52:37.094Z,78.00
2019-03-24T23:55:06.596Z,78.60
2019-03-24T23:57:35.856Z,78.40
